createdAt,value
2023-01-23T00:01:17.185Z,85.99
2023-01-23T00:03:45.185Z,86.13
2023-01-23T00:06:14.583Z,86.91
2023-01-23T00:08:45.371Z,86.18
2023-01-23T00:11:15.296Z,85.17
2023-01-23T00:13:42.985Z,83.94
2023-01-23T00:16:13.163Z,86.12
2023-01-23T00:18:41.406Z,84.08
2023-01-23T00:21:11.909Z,83.59
2023-01-23T00:23:42.518Z,81.35
2023-01-23T00:26:15.570Z,80.94
2023-01-23T00:28:43.434Z,82.42
2023-01-23T00:31:13.740Z,81.57
2023-01-23T00:33:41.692Z,82.92
2023-01-23T00:36:10.446Z,82.29
2023-01-23T00:38:38.175Z,82.48
2023-01-23T00:41:06.440Z,81.55
2023-01-23T00:43:35.484Z,82.76
2023-01-23T00:46:03.211Z,84.19
2023-01-23T00:48:31.327Z,85.50
2023-01-23T00:50:59.387Z,82.73
2023-01-23T00:53:27.275Z,82.38
2023-01-23T00:55:55.440Z,83.97
2023-01-23T00:58:23.654Z,83.07
2023-01-23T01:00:53.013Z,81.89
2023-01-23T01:03:20.953Z,82.12
2023-01-23T01:05:48.849Z,82.07
2023-01-23T01:08:16.617Z,81.86
2023-01-23T01:10:44.376Z,80.50
2023-01-23T01:13:12.660Z,80.54
2023-01-23T01:15:40.397Z,80.24
2023-01-23T01:18:09.443Z,80.18
2023-01-23T01:20:37.246Z,80.79
2023-01-23T01:23:06.170Z,81.00
2023-01-23T01:25:34.082Z,81.41
2023-01-23T01:28:01.822Z,81.50
2023-01-23T01:30:30.367Z,83.90
2023-01-23T01:32:58.230Z,83.21
2023-01-23T01:35:27.285Z,81.91
2023-01-23T01:37:54.916Z,81.78
2023-01-23T01:40:25.146Z,81.85
2023-01-23T01:42:57.483Z,81.41
2023-01-23T01:46:02.296Z,82.25
2023-01-23T01:48:33.316Z,85.51
2023-01-23T01:51:05.353Z,83.78
2023-01-23T01:53:34.520Z,82.16
2023-01-23T01:56:02.549Z,81.82
2023-01-23T01:58:30.865Z,80.23
2023-01-23T02:00:58.556Z,79.64
2023-01-23T02:03:27.455Z,81.61
2023-01-23T02:05:55.135Z,82.36
2023-01-23T02:08:29.661Z,83.71
2023-01-23T02:10:57.723Z,84.48
2023-01-23T02:13:30.457Z,84.62
2023-01-23T02:16:00.091Z,84.61
2023-01-23T02:18:29.765Z,84.66
2023-01-23T02:21:00.547Z,84.12
2023-01-23T02:23:41.706Z,85.03
2023-01-23T02:26:13.698Z,87.51
2023-01-23T02:28:43.720Z,89.52
2023-01-23T02:31:12.015Z,89.42
2023-01-23T02:33:52.562Z,87.09
2023-01-23T02:36:22.566Z,85.50
2023-01-23T02:39:00.239Z,87.88
2023-01-23T02:41:31.680Z,87.93
2023-01-23T02:44:03.191Z,88.57
2023-01-23T02:46:30.932Z,89.04
2023-01-23T02:48:58.621Z,88.12
2023-01-23T02:51:26.617Z,88.25
2023-01-23T02:53:54.373Z,88.87
2023-01-23T02:56:22.072Z,89.31
2023-01-23T02:59:08.928Z,87.80
2023-01-23T03:01:36.746Z,85.70
2023-01-23T03:04:06.308Z,87.80
2023-01-23T03:06:37.640Z,87.68
2023-01-23T03:09:09.481Z,88.49
2023-01-23T03:11:39.498Z,88.23
2023-01-23T03:14:10.839Z,89.19
2023-01-23T03:16:38.804Z,91.40
2023-01-23T03:19:09.248Z,88.12
2023-01-23T03:21:40.288Z,87.95
2023-01-23T03:24:09.288Z,91.23
2023-01-23T03:26:39.456Z,90.71
2023-01-23T03:29:26.501Z,90.02
2023-01-23T03:31:54.382Z,87.08
2023-01-23T03:34:22.919Z,87.17
2023-01-23T03:36:50.771Z,86.07
2023-01-23T03:39:41.452Z,84.47
2023-01-23T03:42:09.263Z,86.42
2023-01-23T03:44:38.649Z,84.66
2023-01-23T03:47:06.660Z,83.80
2023-01-23T03:49:34.481Z,84.32
2023-01-23T03:52:02.607Z,84.27
2023-01-23T03:54:31.276Z,83.28
2023-01-23T03:56:59.081Z,82.96
2023-01-23T03:59:26.987Z,82.05
2023-01-23T04:01:58.052Z,81.93
2023-01-23T04:04:25.731Z,82.82
2023-01-23T04:06:53.418Z,82.04
2023-01-23T04:09:26.070Z,81.46
2023-01-23T04:11:53.782Z,82.42
2023-01-23T04:14:21.460Z,82.46
2023-01-23T04:16:49.480Z,82.78
2023-01-23T04:19:19.739Z,84.11
2023-01-23T04:21:49.906Z,83.42
2023-01-23T04:24:18.260Z,82.81
2023-01-23T04:26:46.187Z,81.49
2023-01-23T04:29:14.130Z,81.92
2023-01-23T04:31:41.909Z,81.59
2023-01-23T04:34:09.995Z,81.16
2023-01-23T04:36:39.129Z,81.88
2023-01-23T04:39:06.841Z,82.46
2023-01-23T04:41:35.249Z,83.48
2023-01-23T04:44:20.224Z,83.15
2023-01-23T04:46:49.781Z,83.00
2023-01-23T04:49:18.792Z,86.63
2023-01-23T04:51:50.060Z,90.18
2023-01-23T04:54:19.022Z,87.40
2023-01-23T04:56:47.414Z,87.02
2023-01-23T04:59:16.783Z,87.69
2023-01-23T05:01:44.783Z,88.63
2023-01-23T05:04:13.142Z,89.85
2023-01-23T05:06:40.928Z,89.14
2023-01-23T05:09:10.142Z,87.57
2023-01-23T05:11:37.875Z,89.21
2023-01-23T05:14:05.623Z,89.93
2023-01-23T05:16:33.503Z,87.53
2023-01-23T05:19:01.360Z,87.94
2023-01-23T05:21:29.091Z,87.30
2023-01-23T05:23:56.800Z,87.31
2023-01-23T05:26:25.835Z,85.70
2023-01-23T05:28:53.525Z,84.07
2023-01-23T05:31:21.408Z,83.54
2023-01-23T05:33:49.161Z,87.02
2023-01-23T05:36:18.539Z,86.68
2023-01-23T05:38:46.659Z,85.86
2023-01-23T05:41:14.537Z,86.75
2023-01-23T05:43:44.097Z,88.02
2023-01-23T05:46:11.875Z,88.21
2023-01-23T05:48:39.655Z,86.75
2023-01-23T05:51:07.456Z,84.36
2023-01-23T05:53:35.164Z,84.78
2023-01-23T05:56:06.838Z,85.38
2023-01-23T05:58:34.484Z,84.86
2023-01-23T06:01:04.437Z,84.28
2023-01-23T06:03:32.193Z,84.01
2023-01-23T06:06:02.809Z,84.00
2023-01-23T06:08:30.739Z,83.93
2023-01-23T06:10:59.564Z,83.92
2023-01-23T06:13:27.651Z,86.27
2023-01-23T06:15:55.700Z,85.70
2023-01-23T06:18:24.851Z,84.53
2023-01-23T06:20:58.920Z,84.73
2023-01-23T06:23:26.840Z,82.62
2023-01-23T06:25:54.609Z,83.47
2023-01-23T06:28:22.333Z,83.53
2023-01-23T06:30:50.127Z,85.33
2023-01-23T06:33:18.051Z,85.17
2023-01-23T06:35:47.384Z,83.84
2023-01-23T06:38:15.258Z,83.34
2023-01-23T06:40:43.270Z,82.88
2023-01-23T06:43:10.981Z,83.40
2023-01-23T06:45:38.757Z,84.35
2023-01-23T06:48:06.985Z,83.65
2023-01-23T06:50:34.670Z,84.00
2023-01-23T06:53:03.731Z,85.52
2023-01-23T06:55:31.497Z,84.69
2023-01-23T06:57:59.534Z,83.17
2023-01-23T07:00:28.108Z,82.74
2023-01-23T07:02:59.021Z,84.13
2023-01-23T07:05:26.778Z,86.89
2023-01-23T07:07:54.453Z,84.98
2023-01-23T07:10:23.866Z,85.52
2023-01-23T07:12:51.708Z,85.73
2023-01-23T07:15:19.377Z,85.91
2023-01-23T07:17:47.051Z,87.29
2023-01-23T07:20:15.297Z,89.45
2023-01-23T07:22:43.018Z,89.85
2023-01-23T07:25:11.104Z,88.85
2023-01-23T07:27:40.174Z,88.83
2023-01-23T07:30:09.268Z,89.94
2023-01-23T07:32:37.062Z,91.17
2023-01-23T07:35:05.431Z,88.36
2023-01-23T07:37:33.235Z,87.45
2023-01-23T07:40:00.948Z,87.57
2023-01-23T07:42:28.716Z,86.44
2023-01-23T07:44:57.786Z,85.98
2023-01-23T07:47:25.443Z,88.34
2023-01-23T07:49:53.165Z,89.05
2023-01-23T07:52:20.843Z,89.78
2023-01-23T07:54:48.539Z,91.64
2023-01-23T07:57:16.220Z,90.23
2023-01-23T07:59:43.936Z,90.47
2023-01-23T08:02:13.147Z,88.86
2023-01-23T08:04:40.833Z,89.24
2023-01-23T08:07:08.588Z,89.51
2023-01-23T08:09:36.410Z,90.23
2023-01-23T08:12:04.334Z,90.61
2023-01-23T08:14:32.166Z,90.83
2023-01-23T08:17:01.553Z,90.19
2023-01-23T08:19:31.017Z,91.46
2023-01-23T08:21:58.690Z,91.50
2023-01-23T08:24:26.379Z,93.46
2023-01-23T08:26:54.052Z,93.54
2023-01-23T08:29:21.722Z,90.74
2023-01-23T08:31:49.738Z,88.40
2023-01-23T08:34:17.447Z,89.36
2023-01-23T08:36:46.477Z,89.53
2023-01-23T08:39:14.153Z,89.88
2023-01-23T08:41:41.904Z,91.35
2023-01-23T08:44:09.573Z,89.55
2023-01-23T08:46:37.405Z,91.71
2023-01-23T08:49:05.259Z,92.24
2023-01-23T08:51:32.975Z,90.55
2023-01-23T08:54:02.173Z,90.35
2023-01-23T08:56:29.872Z,89.11
2023-01-23T08:58:58.548Z,88.46
2023-01-23T09:01:28.084Z,88.90
2023-01-23T09:03:56.041Z,89.02
2023-01-23T09:06:23.974Z,91.58
2023-01-23T09:08:51.698Z,90.62
2023-01-23T09:11:22.744Z,92.55
2023-01-23T09:13:53.641Z,92.79
2023-01-23T09:16:21.666Z,92.45
2023-01-23T09:18:49.434Z,90.79
2023-01-23T09:21:18.336Z,91.28
2023-01-23T09:23:46.842Z,92.17
2023-01-23T09:26:15.634Z,93.88
2023-01-23T09:28:44.897Z,90.80
2023-01-23T09:31:14.239Z,88.44
2023-01-23T09:33:42.044Z,88.64
2023-01-23T09:36:11.156Z,89.07
2023-01-23T09:38:38.920Z,91.22
2023-01-23T09:41:15.344Z,88.68
2023-01-23T09:43:54.298Z,88.89
2023-01-23T09:46:27.628Z,89.91
2023-01-23T09:49:03.440Z,92.66
2023-01-23T09:51:45.016Z,92.97
2023-01-23T09:54:21.679Z,91.12
2023-01-23T09:56:50.367Z,90.59
2023-01-23T09:59:29.286Z,92.83
2023-01-23T10:01:57.549Z,92.65
2023-01-23T10:04:25.243Z,93.60
2023-01-23T10:07:14.523Z,92.54
2023-01-23T10:09:59.602Z,92.49
2023-01-23T10:12:40.777Z,91.95
2023-01-23T10:15:23.634Z,91.03
2023-01-23T10:18:00.352Z,90.37
2023-01-23T10:20:58.300Z,86.37
2023-01-23T10:23:42.311Z,87.99
2023-01-23T10:26:16.371Z,86.37
2023-01-23T10:28:45.385Z,90.47
2023-01-23T10:31:26.016Z,89.10
2023-01-23T10:34:01.101Z,88.66
2023-01-23T10:36:47.885Z,85.67
2023-01-23T10:39:27.059Z,90.25
2023-01-23T10:42:02.005Z,90.96
2023-01-23T10:44:30.419Z,91.32
2023-01-23T10:47:03.641Z,90.50
2023-01-23T10:49:35.078Z,92.34
2023-01-23T10:52:02.852Z,90.35
2023-01-23T10:54:32.595Z,87.92
2023-01-23T10:57:02.954Z,87.47
2023-01-23T10:59:35.459Z,89.21
2023-01-23T11:02:27.753Z,91.74
2023-01-23T11:04:55.577Z,91.78
2023-01-23T11:07:25.731Z,92.23
2023-01-23T11:09:56.532Z,92.31
2023-01-23T11:12:25.911Z,88.11
2023-01-23T11:15:13.224Z,87.78
2023-01-23T11:17:43.340Z,86.40
2023-01-23T11:20:25.592Z,85.97
2023-01-23T11:23:05.973Z,86.35
2023-01-23T11:25:37.316Z,86.86
2023-01-23T11:28:19.548Z,85.94
2023-01-23T11:30:54.221Z,89.07
2023-01-23T11:33:42.463Z,89.08
2023-01-23T11:36:32.938Z,90.00
2023-01-23T11:39:07.685Z,89.77
2023-01-23T11:41:37.145Z,90.21
2023-01-23T11:44:11.279Z,86.96
2023-01-23T11:47:05.618Z,87.08
2023-01-23T11:49:52.373Z,87.83
2023-01-23T11:52:36.078Z,88.84
2023-01-23T11:55:17.993Z,86.99
2023-01-23T11:58:00.481Z,87.26
2023-01-23T12:00:35.823Z,87.36
2023-01-23T12:03:35.821Z,86.00
2023-01-23T12:06:34.902Z,86.27
2023-01-23T12:09:12.183Z,87.65
2023-01-23T12:11:55.778Z,88.98
2023-01-23T12:14:31.887Z,88.52
2023-01-23T12:17:10.614Z,87.47
2023-01-23T12:20:02.109Z,86.39
2023-01-23T12:22:48.097Z,86.52
2023-01-23T12:25:25.603Z,86.90
2023-01-23T12:28:01.783Z,84.85
2023-01-23T12:30:56.403Z,85.53
2023-01-23T12:33:51.354Z,85.27
2023-01-23T12:36:40.335Z,84.22
2023-01-23T12:39:34.544Z,84.61
2023-01-23T12:42:05.551Z,84.28
2023-01-23T12:44:37.878Z,84.74
2023-01-23T12:47:09.694Z,86.47
2023-01-23T12:49:43.655Z,83.68
2023-01-23T12:52:16.539Z,86.64
2023-01-23T12:54:50.655Z,86.48
2023-01-23T12:57:52.791Z,86.71
2023-01-23T13:00:53.689Z,86.15
2023-01-23T13:03:45.374Z,87.51
2023-01-23T13:06:29.376Z,88.34
2023-01-23T13:09:16.674Z,87.85
2023-01-23T13:11:54.299Z,86.23
2023-01-23T13:14:27.373Z,87.42
2023-01-23T13:17:00.732Z,86.64
2023-01-23T13:19:47.615Z,84.88
2023-01-23T13:22:28.661Z,86.00
2023-01-23T13:25:12.963Z,85.91
2023-01-23T13:27:51.552Z,87.64
2023-01-23T13:30:39.185Z,89.06
2023-01-23T13:34:03.676Z,86.44
2023-01-23T13:36:42.647Z,85.43
2023-01-23T13:39:27.236Z,88.40
2023-01-23T13:42:35.734Z,86.02
2023-01-23T13:45:24.193Z,86.61
2023-01-23T14:20:20.311Z,86.09
2023-01-23T14:22:48.300Z,82.32
2023-01-23T14:25:18.647Z,82.81
2023-01-23T14:27:53.610Z,82.33
2023-01-23T14:30:27.088Z,83.23
2023-01-23T14:32:55.555Z,84.69
2023-01-23T14:35:27.227Z,85.93
2023-01-23T14:37:58.255Z,88.12
2023-01-23T14:40:30.721Z,87.45
2023-01-23T14:43:03.312Z,86.85
2023-01-23T14:45:33.614Z,86.48
2023-01-23T14:48:07.137Z,88.26
2023-01-23T14:50:36.736Z,87.47
2023-01-23T14:53:06.165Z,86.93
2023-01-23T14:55:38.443Z,87.60
2023-01-23T14:58:07.452Z,86.18
2023-01-23T15:00:37.229Z,85.22
2023-01-23T15:03:06.209Z,85.28
2023-01-23T15:05:34.062Z,86.55
2023-01-23T15:08:06.178Z,85.24
2023-01-23T15:10:44.683Z,85.74
2023-01-23T15:13:20.750Z,86.17
2023-01-23T15:15:56.527Z,87.68
2023-01-23T15:18:27.558Z,87.76
2023-01-23T15:20:56.854Z,86.70
2023-01-23T15:23:31.420Z,84.75
2023-01-23T15:26:13.673Z,84.96
2023-01-23T15:28:43.066Z,86.15
2023-01-23T15:31:29.632Z,87.15
2023-01-23T15:34:11.769Z,87.18
2023-01-23T15:36:39.778Z,87.76
2023-01-23T15:39:19.774Z,85.48
2023-01-23T15:41:50.823Z,86.76
2023-01-23T15:44:20.345Z,85.01
2023-01-23T15:46:48.592Z,87.42
2023-01-23T15:49:25.393Z,90.25
2023-01-23T15:51:56.803Z,89.05
2023-01-23T15:54:32.410Z,86.49
2023-01-23T15:57:07.401Z,88.92
2023-01-23T15:59:36.715Z,88.96
2023-01-23T16:02:04.792Z,88.73
2023-01-23T16:04:32.527Z,88.70
2023-01-23T16:07:05.979Z,89.71
2023-01-23T16:09:37.975Z,89.56
2023-01-23T16:12:06.368Z,91.24
2023-01-23T16:14:34.108Z,89.01
2023-01-23T16:17:15.217Z,87.77
2023-01-23T16:19:43.980Z,89.34
2023-01-23T16:22:15.563Z,89.15
2023-01-23T16:24:44.943Z,90.55
2023-01-23T16:27:18.658Z,90.70
2023-01-23T16:29:49.328Z,91.52
2023-01-23T16:32:17.606Z,88.90
2023-01-23T16:34:45.528Z,86.79
2023-01-23T16:37:17.028Z,87.85
2023-01-23T16:39:47.504Z,89.23
2023-01-23T16:42:21.564Z,89.84
2023-01-23T16:44:49.440Z,91.80
2023-01-23T16:47:17.146Z,90.92
2023-01-23T16:49:54.096Z,89.45
2023-01-23T16:52:26.061Z,89.37
2023-01-23T16:54:56.294Z,90.48
2023-01-23T16:57:25.257Z,90.15
2023-01-23T16:59:56.263Z,89.65
2023-01-23T17:02:28.924Z,91.81
2023-01-23T17:04:56.814Z,89.27
2023-01-23T17:07:24.572Z,88.75
2023-01-23T17:09:52.370Z,88.00
2023-01-23T17:12:27.566Z,91.28
2023-01-23T17:14:57.205Z,90.90
2023-01-23T17:17:30.408Z,91.18
2023-01-23T17:19:58.533Z,90.42
2023-01-23T17:22:30.489Z,88.06
2023-01-23T17:24:58.369Z,89.19
2023-01-23T17:27:27.739Z,91.10
2023-01-23T17:29:55.464Z,92.17
2023-01-23T17:32:29.450Z,91.75
2023-01-23T17:34:57.778Z,92.64
2023-01-23T17:37:25.625Z,91.96
2023-01-23T17:39:53.548Z,89.32
2023-01-23T17:42:22.031Z,90.82
2023-01-23T17:44:51.300Z,91.65
2023-01-23T17:47:19.517Z,92.43
2023-01-23T17:49:54.461Z,91.42
2023-01-23T17:52:24.921Z,91.02
2023-01-23T17:54:54.524Z,91.47
2023-01-23T17:57:22.757Z,90.61
2023-01-23T17:59:55.485Z,93.66
2023-01-23T18:02:28.010Z,93.11
2023-01-23T18:04:56.608Z,92.62
2023-01-23T18:07:24.676Z,91.54
2023-01-23T18:09:55.471Z,91.38
2023-01-23T18:12:31.704Z,91.90
2023-01-23T18:15:08.062Z,93.52
2023-01-23T18:17:43.022Z,93.39
2023-01-23T18:20:18.440Z,93.22
2023-01-23T18:22:46.904Z,93.08
2023-01-23T18:25:16.261Z,91.79
2023-01-23T18:27:46.429Z,92.05
2023-01-23T18:30:25.239Z,92.58
2023-01-23T18:33:06.588Z,93.80
2023-01-23T18:35:51.948Z,92.87
2023-01-23T18:38:29.319Z,91.94
2023-01-23T18:41:09.292Z,92.40
2023-01-23T18:43:39.957Z,93.41
2023-01-23T18:46:13.540Z,91.19
2023-01-23T18:48:42.702Z,91.07
2023-01-23T18:51:26.424Z,91.43
2023-01-23T18:54:02.894Z,93.27
2023-01-23T18:56:39.437Z,92.40
2023-01-23T18:59:17.381Z,93.12
2023-01-23T19:01:54.073Z,90.78
2023-01-23T19:04:30.575Z,91.03
2023-01-23T19:06:59.028Z,92.10
2023-01-23T19:09:28.316Z,93.28
2023-01-23T19:12:20.474Z,91.33
2023-01-23T19:15:11.905Z,91.68
2023-01-23T19:17:48.774Z,92.07
2023-01-23T19:20:26.298Z,92.03
2023-01-23T19:23:03.174Z,90.55
2023-01-23T19:25:31.325Z,92.25
2023-01-23T19:28:00.908Z,93.13
2023-01-23T19:30:29.376Z,91.18
2023-01-23T19:32:58.554Z,88.25
2023-01-23T19:35:26.403Z,87.65
2023-01-23T19:37:54.266Z,87.03
2023-01-23T19:40:22.110Z,86.69
2023-01-23T19:42:58.762Z,86.80
2023-01-23T19:45:33.859Z,86.82
2023-01-23T19:48:02.959Z,86.96
2023-01-23T19:50:30.803Z,87.45
2023-01-23T19:53:00.210Z,85.46
2023-01-23T19:55:30.539Z,85.52
2023-01-23T19:57:58.622Z,84.94
2023-01-23T20:00:28.096Z,86.38
2023-01-23T20:02:55.812Z,86.34
2023-01-23T20:05:25.632Z,88.29
2023-01-23T20:07:54.096Z,88.05
2023-01-23T20:10:22.452Z,86.56
2023-01-23T20:12:52.016Z,87.78
2023-01-23T20:15:22.566Z,87.12
2023-01-23T20:17:50.597Z,87.41
2023-01-23T20:20:19.168Z,87.33
2023-01-23T20:22:48.547Z,88.72
2023-01-23T20:25:17.846Z,88.19
2023-01-23T20:27:45.992Z,87.24
2023-01-23T20:30:16.249Z,87.08
2023-01-23T20:32:44.159Z,86.68
2023-01-23T20:35:12.846Z,87.31
2023-01-23T20:37:40.541Z,87.43
2023-01-23T20:40:11.710Z,88.50
2023-01-23T20:42:40.042Z,88.20
2023-01-23T20:45:08.914Z,89.00
2023-01-23T20:47:37.293Z,86.75
2023-01-23T20:50:05.542Z,85.57
2023-01-23T20:52:50.511Z,85.38
2023-01-23T20:55:19.937Z,88.10
2023-01-23T20:58:05.533Z,87.56
2023-01-23T21:00:33.432Z,87.26
2023-01-23T21:03:01.258Z,86.69
2023-01-23T21:05:29.064Z,85.41
2023-01-23T21:07:56.777Z,85.48
2023-01-23T21:10:25.867Z,85.84
2023-01-23T21:12:53.588Z,86.95
2023-01-23T21:15:21.441Z,88.30
2023-01-23T21:17:49.374Z,89.48
2023-01-23T21:20:17.449Z,90.88
2023-01-23T21:22:45.182Z,91.49
2023-01-23T21:25:13.255Z,91.36
2023-01-23T21:27:42.431Z,88.43
2023-01-23T21:30:11.508Z,88.01
2023-01-23T21:32:39.302Z,90.07
2023-01-23T21:35:07.888Z,88.47
2023-01-23T21:37:36.175Z,89.20
2023-01-23T21:40:04.033Z,90.33
2023-01-23T21:42:31.727Z,88.75
2023-01-23T21:45:00.909Z,87.33
2023-01-23T21:47:28.656Z,85.20
2023-01-23T21:49:56.393Z,87.04
2023-01-23T21:52:24.176Z,89.76
2023-01-23T21:54:52.011Z,88.45
2023-01-23T21:57:19.801Z,87.99
2023-01-23T22:00:07.616Z,89.34
2023-01-23T22:02:35.769Z,89.23
2023-01-23T22:05:03.592Z,90.15
2023-01-23T22:07:31.275Z,90.01
2023-01-23T22:09:58.921Z,88.69
2023-01-23T22:12:28.080Z,87.57
2023-01-23T22:14:56.682Z,87.58
2023-01-23T22:17:24.502Z,86.70
2023-01-23T22:19:53.826Z,84.51
2023-01-23T22:22:21.578Z,88.82
2023-01-23T22:24:49.613Z,90.37
2023-01-23T22:27:17.679Z,89.10
2023-01-23T22:29:45.556Z,89.03
2023-01-23T22:32:13.516Z,89.05
2023-01-23T22:34:41.372Z,87.60
2023-01-23T22:37:10.539Z,87.89
2023-01-23T22:39:38.240Z,86.32
2023-01-23T22:42:06.178Z,87.67
2023-01-23T22:44:33.906Z,86.37
2023-01-23T22:47:01.758Z,86.34
2023-01-23T22:49:29.502Z,85.33
2023-01-23T22:51:57.288Z,83.26
2023-01-23T22:54:26.457Z,81.31
2023-01-23T22:56:54.229Z,82.83
2023-01-23T22:59:21.971Z,82.04
2023-01-23T23:01:49.648Z,86.73
2023-01-23T23:04:17.416Z,86.42
2023-01-23T23:06:45.090Z,86.55
2023-01-23T23:09:12.807Z,86.19
2023-01-23T23:11:44.030Z,86.19
2023-01-23T23:14:11.943Z,87.16
2023-01-23T23:16:40.908Z,84.71
2023-01-23T23:19:08.618Z,84.81
2023-01-23T23:21:37.737Z,85.70
2023-01-23T23:24:08.010Z,84.83
2023-01-23T23:26:35.944Z,84.86
2023-01-23T23:29:06.293Z,88.24
2023-01-23T23:31:34.402Z,88.75
2023-01-23T23:34:02.566Z,87.76
2023-01-23T23:36:30.587Z,86.71
2023-01-23T23:38:58.288Z,85.26
2023-01-23T23:41:26.394Z,86.66
2023-01-23T23:43:54.184Z,86.41
2023-01-23T23:46:23.306Z,87.04
2023-01-23T23:48:51.050Z,86.21
2023-01-23T23:51:19.945Z,84.07
2023-01-23T23:53:47.995Z,84.50
2023-01-23T23:56:21.902Z,83.90
2023-01-23T23:58:49.856Z,83.16
